createdAt,value
2022-10-01T00:00:22.823Z,16.95
2022-10-01T00:05:25.024Z,18.15
2022-10-01T00:10:30.249Z,16.70
2022-10-01T00:15:32.662Z,18.00
2022-10-01T00:20:35.329Z,18.02
2022-10-01T00:25:39.308Z,17.55
2022-10-01T00:30:48.412Z,19.63
2022-10-01T00:35:50.968Z,19.98
2022-10-01T00:40:54.433Z,20.40
2022-10-01T00:46:01.619Z,20.67
2022-10-01T00:51:04.811Z,22.30
2022-10-01T00:56:08.686Z,21.13
2022-10-01T01:01:10.909Z,22.52
2022-10-01T01:06:13.042Z,22.88
2022-10-01T01:11:25.981Z,24.15
2022-10-01T01:16:34.062Z,23.05
2022-10-01T01:21:41.111Z,23.45
2022-10-01T01:27:00.119Z,24.33
2022-10-01T01:32:12.604Z,24.02
2022-10-01T01:37:20.441Z,24.63
2022-10-01T01:42:30.150Z,23.73
2022-10-01T01:47:34.561Z,26.33
2022-10-01T01:52:36.990Z,25.60
2022-10-01T01:57:42.200Z,24.30
2022-10-01T02:02:51.579Z,25.55
2022-10-01T02:08:12.280Z,25.05
2022-10-01T02:13:29.347Z,23.88
2022-10-01T02:18:38.370Z,26.48
2022-10-01T02:23:45.166Z,26.48
2022-10-01T02:28:50.412Z,25.73
2022-10-01T02:33:56.770Z,24.58
2022-10-01T02:39:00.888Z,20.50
2022-10-01T02:44:08.039Z,18.98
2022-10-01T02:49:13.358Z,16.65
2022-10-01T02:54:20.575Z,16.17
2022-10-01T02:59:23.511Z,15.52
2022-10-01T03:04:27.041Z,14.43
2022-10-01T03:09:29.145Z,14.82
2022-10-01T03:14:32.481Z,14.75
2022-10-01T03:19:36.002Z,16.70
2022-10-01T03:24:38.073Z,14.25
2022-10-01T03:29:40.450Z,14.57
2022-10-01T03:34:44.045Z,14.48
2022-10-01T03:39:46.346Z,15.40
2022-10-01T03:44:48.653Z,15.80
2022-10-01T03:49:52.162Z,16.67
2022-10-01T03:54:54.355Z,15.93
2022-10-01T03:59:56.550Z,15.38
2022-10-01T04:04:59.977Z,16.42
2022-10-01T04:10:02.214Z,15.52
2022-10-01T04:15:04.557Z,15.40
2022-10-01T04:20:08.944Z,14.98
2022-10-01T04:25:11.977Z,14.43
2022-10-01T04:30:14.216Z,13.63
2022-10-01T04:35:17.916Z,13.23
2022-10-01T04:40:20.181Z,12.70
2022-10-01T04:45:22.464Z,12.48
2022-10-01T04:50:27.698Z,13.73
2022-10-01T04:55:30.081Z,12.50
2022-10-01T05:00:32.617Z,14.93
2022-10-01T05:05:36.535Z,17.35
2022-10-01T05:10:38.813Z,15.15
2022-10-01T05:15:41.551Z,16.55
2022-10-01T05:20:45.441Z,16.17
2022-10-01T05:25:47.715Z,15.85
2022-10-01T05:30:51.329Z,14.77
2022-10-01T05:35:55.329Z,13.82
2022-10-01T05:40:57.830Z,14.20
2022-10-01T05:46:02.181Z,14.38
2022-10-01T05:51:08.479Z,14.30
2022-10-01T05:56:13.842Z,13.35
2022-10-01T06:01:16.339Z,13.70
2022-10-01T06:06:23.803Z,13.13
2022-10-01T06:11:27.303Z,12.43
2022-10-01T06:16:29.901Z,12.63
2022-10-01T06:21:34.157Z,12.40
2022-10-01T06:26:39.480Z,13.20
2022-10-01T06:31:44.234Z,6.55
2022-10-01T06:36:48.055Z,7.25
2022-10-01T06:41:50.314Z,13.90
2022-10-01T06:46:53.022Z,12.93
2022-10-01T06:52:14.002Z,9.68
2022-10-01T06:57:16.480Z,10.38
2022-10-01T07:02:24.499Z,10.05
2022-10-01T07:07:31.666Z,10.85
2022-10-01T07:12:35.312Z,10.25
2022-10-01T07:17:45.043Z,8.93
2022-10-01T07:22:49.775Z,7.68
2022-10-01T07:27:55.040Z,7.60
2022-10-01T07:32:57.403Z,7.13
2022-10-01T07:38:07.531Z,7.60
2022-10-01T07:43:10.380Z,8.80
2022-10-01T07:48:12.590Z,6.88
2022-10-01T07:53:16.216Z,6.75
2022-10-01T07:58:18.939Z,6.65
2022-10-01T08:03:21.169Z,6.90
2022-10-01T08:08:24.787Z,5.85
2022-10-01T08:13:27.049Z,6.53
2022-10-01T08:18:29.281Z,8.32
2022-10-01T08:23:33.934Z,5.90
2022-10-01T08:28:37.007Z,5.95
2022-10-01T08:33:40.020Z,5.93
2022-10-01T08:38:47.134Z,7.60
2022-10-01T08:43:50.316Z,6.95
2022-10-01T08:48:58.745Z,7.35
2022-10-01T08:54:09.820Z,6.95
2022-10-01T08:59:26.630Z,5.60
2022-10-01T09:04:30.579Z,5.95
2022-10-01T09:09:46.216Z,5.35
2022-10-01T09:15:07.253Z,6.40
2022-10-01T09:20:18.009Z,5.43
2022-10-01T09:25:24.608Z,4.97
2022-10-01T09:30:27.300Z,6.88
2022-10-01T09:35:37.792Z,5.68
2022-10-01T09:40:50.162Z,5.95
2022-10-01T09:45:53.246Z,6.45
2022-10-01T09:51:00.400Z,9.27
2022-10-01T09:56:10.687Z,6.10
2022-10-01T10:01:21.592Z,5.72
2022-10-01T10:06:28.340Z,5.25
2022-10-01T10:11:34.165Z,4.40
2022-10-01T10:16:38.603Z,4.50
2022-10-01T10:21:53.213Z,5.65
2022-10-01T10:26:58.838Z,5.38
2022-10-01T10:32:05.590Z,4.28
2022-10-01T10:37:14.781Z,5.43
2022-10-01T10:42:19.036Z,4.43
2022-10-01T10:47:23.065Z,3.60
2022-10-01T10:52:30.404Z,3.88
2022-10-01T10:57:36.842Z,3.45
2022-10-01T11:02:42.465Z,2.58
2022-10-01T11:07:46.607Z,3.38
2022-10-01T11:13:07.000Z,2.15
2022-10-01T11:18:30.950Z,2.17
2022-10-01T11:23:49.518Z,2.67
2022-10-01T11:29:05.657Z,2.85
2022-10-01T11:34:23.015Z,2.42
2022-10-01T11:39:29.561Z,2.38
2022-10-01T11:44:40.317Z,1.40
2022-10-01T11:49:50.366Z,2.47
2022-10-01T11:55:22.900Z,2.00
2022-10-01T12:00:27.565Z,2.20
2022-10-01T12:05:33.167Z,2.85
2022-10-01T12:10:40.203Z,2.03
2022-10-01T12:15:49.528Z,3.45
2022-10-01T12:20:54.775Z,1.23
2022-10-01T12:26:07.191Z,2.15
2022-10-01T12:31:17.611Z,1.92
2022-10-01T12:36:28.923Z,2.75
2022-10-01T12:41:43.146Z,2.05
2022-10-01T12:46:56.843Z,4.05
2022-10-01T12:52:05.818Z,2.75
2022-10-01T12:57:18.751Z,4.10
2022-10-01T13:02:39.618Z,5.38
2022-10-01T13:07:55.506Z,2.15
2022-10-01T13:13:07.852Z,1.90
2022-10-01T13:18:28.476Z,3.35
2022-10-01T13:23:39.502Z,1.95
2022-10-01T13:29:02.041Z,3.33
2022-10-01T13:34:20.655Z,2.20
2022-10-01T13:39:24.119Z,1.67
2022-10-01T13:44:32.506Z,4.25
2022-10-01T13:49:39.050Z,1.60
2022-10-01T13:54:47.595Z,2.30
2022-10-01T13:59:59.914Z,3.85
2022-10-01T14:05:30.189Z,2.33
2022-10-01T14:10:57.754Z,2.08
2022-10-01T14:16:00.412Z,2.53
2022-10-01T14:21:13.666Z,2.15
2022-10-01T14:26:24.690Z,3.05
2022-10-01T14:31:38.306Z,2.83
2022-10-01T14:36:46.261Z,3.33
2022-10-01T14:41:50.158Z,2.50
2022-10-01T14:46:53.406Z,2.55
2022-10-01T14:52:02.175Z,2.60
2022-10-01T14:57:10.174Z,2.80
2022-10-01T15:02:20.839Z,2.60
2022-10-01T15:07:25.563Z,2.40
2022-10-01T15:12:28.593Z,2.42
2022-10-01T15:17:31.199Z,4.15
2022-10-01T15:22:34.919Z,3.05
2022-10-01T15:27:37.279Z,3.25
2022-10-01T15:32:39.949Z,3.58
2022-10-01T15:37:48.003Z,3.75
2022-10-01T15:43:24.272Z,3.47
2022-10-01T15:48:31.217Z,3.55
2022-10-01T15:53:36.828Z,3.47
2022-10-01T15:58:48.438Z,4.82
2022-10-01T16:03:54.732Z,5.18
2022-10-01T16:09:06.277Z,10.70
2022-10-01T16:14:25.229Z,4.13
2022-10-01T16:19:31.345Z,5.40
2022-10-01T16:24:44.330Z,5.78
2022-10-01T16:29:56.964Z,4.40
2022-10-01T16:35:23.474Z,5.85
2022-10-01T16:40:29.124Z,6.32
2022-10-01T16:45:36.007Z,4.80
2022-10-01T16:50:38.403Z,4.95
2022-10-01T16:55:42.577Z,5.82
2022-10-01T17:00:45.073Z,5.25
2022-10-01T17:05:48.381Z,4.25
2022-10-01T17:10:57.134Z,3.13
2022-10-01T17:15:59.896Z,3.13
2022-10-01T17:21:04.574Z,5.28
2022-10-01T17:26:09.750Z,3.65
2022-10-01T17:31:17.551Z,5.18
2022-10-01T17:36:20.400Z,2.65
2022-10-01T17:41:24.386Z,3.45
2022-10-01T17:46:26.909Z,2.42
2022-10-01T17:51:29.256Z,2.55
2022-10-01T17:56:33.585Z,2.40
2022-10-01T18:01:36.215Z,2.78
2022-10-01T18:06:38.615Z,3.20
2022-10-01T18:11:42.513Z,3.00
2022-10-01T18:16:44.995Z,2.67
2022-10-01T18:21:48.245Z,3.10
2022-10-01T18:26:52.339Z,3.40
2022-10-01T18:31:57.137Z,3.13
2022-10-01T18:37:05.190Z,4.60
2022-10-01T18:42:17.615Z,2.22
2022-10-01T18:47:27.644Z,2.40
2022-10-01T18:52:44.131Z,2.22
2022-10-01T18:58:04.576Z,1.60
2022-10-01T19:03:34.368Z,1.70
2022-10-01T19:08:53.125Z,2.60
2022-10-01T19:14:06.326Z,2.70
2022-10-01T19:19:22.555Z,2.28
2022-10-01T19:24:39.299Z,2.13
2022-10-01T19:29:55.623Z,2.42
2022-10-01T19:35:03.456Z,2.20
2022-10-01T19:40:16.059Z,2.00
2022-10-01T19:45:24.894Z,1.80
2022-10-01T19:50:31.234Z,2.83
2022-10-01T19:55:38.910Z,2.00
2022-10-01T20:00:43.573Z,2.88
2022-10-01T20:05:51.033Z,2.15
2022-10-01T20:10:57.102Z,3.80
2022-10-01T20:16:12.680Z,3.50
2022-10-01T20:21:26.750Z,4.25
2022-10-01T20:26:38.989Z,2.83
2022-10-01T20:31:52.124Z,1.80
2022-10-01T20:37:08.466Z,1.90
2022-10-01T20:42:17.328Z,6.57
2022-10-01T20:47:26.602Z,2.45
2022-10-01T20:52:35.632Z,5.38
2022-10-01T20:57:43.228Z,2.95
2022-10-01T21:02:52.360Z,1.77
2022-10-01T21:07:58.209Z,1.88
2022-10-01T21:13:06.659Z,3.42
2022-10-01T21:18:15.828Z,2.50
2022-10-01T21:23:39.760Z,2.63
2022-10-01T21:29:08.091Z,3.60
2022-10-01T21:34:15.320Z,2.00
2022-10-01T21:39:31.458Z,2.25
2022-10-01T21:45:01.142Z,2.90
2022-10-01T21:50:16.647Z,1.98
2022-10-01T21:55:34.941Z,3.22
2022-10-01T22:00:37.891Z,2.10
2022-10-01T22:05:50.841Z,1.30
2022-10-01T22:10:59.230Z,1.50
2022-10-01T22:16:07.819Z,1.23
2022-10-01T22:21:19.519Z,3.95
2022-10-01T22:26:26.272Z,1.20
2022-10-01T22:31:34.086Z,1.67
2022-10-01T22:36:45.305Z,1.98
2022-10-01T22:41:52.076Z,1.75
2022-10-01T22:47:25.269Z,1.23
2022-10-01T22:52:37.085Z,2.33
2022-10-01T22:58:01.079Z,1.63
2022-10-01T23:03:12.666Z,2.05
2022-10-01T23:08:28.722Z,2.03
2022-10-01T23:13:38.787Z,2.17
2022-10-01T23:18:49.940Z,1.10
2022-10-01T23:24:05.487Z,2.63
2022-10-01T23:29:37.435Z,1.90
2022-10-01T23:34:46.267Z,1.20
2022-10-01T23:39:56.451Z,1.83
2022-10-01T23:45:07.765Z,3.08
2022-10-01T23:50:22.794Z,3.38
2022-10-01T23:55:54.649Z,1.45
